Time;durP1;ratioP1;P1;durP2;ratioP2;P2;SDS_P1;SDS_P2;PMS_P1;PMS_P2;Temp;Humidity;BMP_temperature;BMP_pressure;BME280_temperature;BME280_humidity;BME280_pressure;Samples;Min_cycle;Max_cycle;Signal;HPM_P1;HPM_P2
2022/07/28 00:01:29;;;;;;;3.92;1.33;;;16.00;99.90;;;;;;5037476;28;20661;-60
2022/07/28 00:03:55;;;;;;;6.90;1.30;;;16.00;99.90;;;;;;5031536;28;20495;-60
2022/07/28 00:06:21;;;;;;;4.30;1.27;;;16.00;99.90;;;;;;5028542;28;20037;-61
2022/07/28 00:08:46;;;;;;;7.07;1.40;;;15.90;99.90;;;;;;5031939;28;20109;-61
2022/07/28 00:11:12;;;;;;;2.38;1.10;;;15.90;99.90;;;;;;5029422;28;20099;-60
2022/07/28 00:13:38;;;;;;;4.82;1.25;;;15.50;99.90;;;;;;5032159;28;20169;-60
2022/07/28 00:16:04;;;;;;;5.82;1.65;;;16.30;99.90;;;;;;5029559;28;20025;-61
2022/07/28 00:18:29;;;;;;;2.92;1.00;;;16.20;99.90;;;;;;5043106;28;20013;-60
2022/07/28 00:20:56;;;;;;;3.63;1.10;;;16.20;99.90;;;;;;5028020;28;20435;-61
2022/07/28 00:23:22;;;;;;;5.00;1.13;;;16.20;99.90;;;;;;5034219;28;20497;-60
2022/07/28 00:25:48;;;;;;;5.57;1.17;;;16.20;99.90;;;;;;5028716;28;20064;-61
2022/07/28 00:28:13;;;;;;;4.93;1.00;;;16.30;99.90;;;;;;5029779;28;20029;-60
2022/07/28 00:30:39;;;;;;;4.63;1.10;;;16.10;99.90;;;;;;5030792;28;20551;-60
2022/07/28 00:33:04;;;;;;;4.97;1.20;;;16.10;99.90;;;;;;5036009;28;20037;-60
2022/07/28 00:35:30;;;;;;;3.95;1.10;;;16.00;99.90;;;;;;5029527;28;20043;-60
2022/07/28 00:37:55;;;;;;;2.03;1.05;;;15.90;99.90;;;;;;5032131;28;20035;-60
2022/07/28 00:40:21;;;;;;;2.88;1.10;;;16.00;99.90;;;;;;5026026;28;20152;-60
2022/07/28 00:42:46;;;;;;;6.57;1.35;;;15.90;99.90;;;;;;5033490;28;20038;-61
2022/07/28 00:45:12;;;;;;;5.05;1.20;;;15.80;99.90;;;;;;5028034;28;20521;-60
2022/07/28 00:47:38;;;;;;;4.82;1.20;;;15.90;99.90;;;;;;5033056;28;20029;-61
2022/07/28 00:50:04;;;;;;;6.43;1.23;;;15.90;99.90;;;;;;5031338;28;20078;-61
2022/07/28 00:52:30;;;;;;;2.03;0.77;;;16.10;99.90;;;;;;5028108;28;20041;-61
2022/07/28 00:54:57;;;;;;;7.07;1.50;;;15.90;99.90;;;;;;5039247;28;20447;-60
2022/07/28 00:57:23;;;;;;;2.15;1.10;;;15.90;99.90;;;;;;5032178;28;20037;-60
2022/07/28 00:59:48;;;;;;;5.53;1.20;;;15.80;99.90;;;;;;5034627;28;20032;-60
2022/07/28 01:02:14;;;;;;;6.53;1.42;;;15.80;99.90;;;;;;5035280;28;20428;-60
2022/07/28 01:04:40;;;;;;;4.93;1.25;;;15.80;99.90;;;;;;5036453;28;20021;-60
2022/07/28 01:07:19;;;;;;;4.88;1.05;;;15.80;99.90;;;;;;5027951;28;20443;-60
2022/07/28 01:10:07;;;;;;;5.32;1.45;;;15.80;99.90;;;;;;5038540;28;20047;-60
2022/07/28 01:12:54;;;;;;;3.85;1.10;;;15.70;99.90;;;;;;5025893;28;20523;-60
2022/07/28 01:15:35;;;;;;;2.47;0.90;;;15.70;99.90;;;;;;5034178;28;20017;-60
2022/07/28 01:18:20;;;;;;;4.13;1.10;;;15.90;99.90;;;;;;5043977;28;20079;-60
2022/07/28 01:21:08;;;;;;;3.22;1.10;;;16.10;99.90;;;;;;5028549;28;20440;-60
2022/07/28 01:23:33;;;;;;;4.07;1.17;;;15.90;99.90;;;;;;5025358;28;20038;-60
2022/07/28 01:26:05;;;;;;;5.30;1.10;;;15.50;99.90;;;;;;5026725;28;20029;-60
2022/07/28 01:28:43;;;;;;;4.35;1.13;;;15.60;99.90;;;;;;5031502;28;20022;-61
2022/07/28 01:31:13;;;;;;;4.18;1.10;;;15.70;99.90;;;;;;5028070;28;20026;-60
2022/07/28 01:33:46;;;;;;;4.80;1.38;;;15.50;99.90;;;;;;5032432;28;20036;-60
2022/07/28 01:36:16;;;;;;;4.40;1.27;;;15.40;99.90;;;;;;5031288;28;20389;-61
2022/07/28 01:38:42;;;;;;;3.55;1.25;;;15.30;99.90;;;;;;5032921;28;20583;-60
2022/07/28 01:41:13;;;;;;;5.97;1.45;;;15.20;99.90;;;;;;5024811;28;20547;-60
2022/07/28 01:43:43;;;;;;;2.95;1.02;;;15.80;99.90;;;;;;5036144;28;20013;-60
2022/07/28 01:46:10;;;;;;;3.65;0.93;;;15.40;99.90;;;;;;5033597;28;20112;-60
2022/07/28 01:48:38;;;;;;;4.78;1.08;;;15.60;99.90;;;;;;5027549;28;20476;-59
2022/07/28 01:51:06;;;;;;;4.10;1.40;;;15.20;99.90;;;;;;5030949;28;20501;-60
2022/07/28 01:53:33;;;;;;;5.57;1.27;;;15.40;99.90;;;;;;5028208;28;20030;-61
2022/07/28 01:56:02;;;;;;;5.53;1.23;;;15.60;99.90;;;;;;5028628;28;20025;-61
2022/07/28 01:58:29;;;;;;;5.60;1.17;;;15.60;99.90;;;;;;5025691;28;20042;-60
2022/07/28 02:00:56;;;;;;;3.78;1.10;;;15.60;99.90;;;;;;5034508;28;20472;-61
2022/07/28 02:03:23;;;;;;;6.57;1.25;;;15.40;99.90;;;;;;5029540;28;20026;-61
2022/07/28 02:05:51;;;;;;;3.05;0.85;;;15.10;99.90;;;;;;5032030;28;20075;-60
2022/07/28 02:08:19;;;;;;;3.38;1.10;;;15.20;99.90;;;;;;5024432;28;20117;-61
2022/07/28 02:11:38;;;;;;;4.45;1.27;;;15.00;99.90;;;;;;5029792;28;20076;-61
2022/07/28 02:13:34;;;;;;;3.75;1.00;;;15.10;99.90;;;;;;5031369;28;20111;-61
2022/07/28 02:16:03;;;;;;;3.95;1.10;;;15.70;99.90;;;;;;5029868;28;20057;-60
2022/07/28 02:18:31;;;;;;;5.70;1.38;;;15.10;99.90;;;;;;5043836;28;20028;-60
2022/07/28 02:20:58;;;;;;;4.90;1.30;;;15.20;99.90;;;;;;5027763;28;20036;-60
2022/07/28 02:23:25;;;;;;;5.40;1.23;;;15.40;99.90;;;;;;5024771;28;20057;-60
2022/07/28 02:25:52;;;;;;;6.47;1.45;;;15.00;99.90;;;;;;5032837;28;20028;-61
2022/07/28 02:28:20;;;;;;;3.92;1.17;;;15.00;99.90;;;;;;5029301;28;20034;-60
2022/07/28 02:30:58;;;;;;;5.60;1.38;;;15.10;99.90;;;;;;5027659;28;20358;-60
2022/07/28 02:33:25;;;;;;;5.32;1.30;;;15.20;99.90;;;;;;5030598;28;20045;-61
2022/07/28 02:36:04;;;;;;;3.25;1.20;;;15.10;99.90;;;;;;5025099;28;20048;-61
2022/07/28 02:38:45;;;;;;;3.70;1.20;;;15.00;99.90;;;;;;5027761;28;20027;-60
2022/07/28 02:41:23;;;;;;;4.63;1.30;;;15.10;99.90;;;;;;5037785;28;20143;-60
2022/07/28 02:43:51;;;;;;;4.68;1.38;;;15.30;99.90;;;;;;5039244;28;20029;-60
2022/07/28 02:46:27;;;;;;;9.38;1.30;;;15.20;99.90;;;;;;5042733;28;20038;-61
2022/07/28 02:49:05;;;;;;;5.65;1.33;;;15.00;99.90;;;;;;5030065;28;20079;-60
2022/07/28 02:51:33;;;;;;;3.35;1.10;;;15.20;99.90;;;;;;5035429;28;20418;-60
2022/07/28 02:53:59;;;;;;;4.25;1.33;;;15.20;99.90;;;;;;5025392;28;20196;-61
2022/07/28 02:56:25;;;;;;;4.55;1.23;;;15.00;99.90;;;;;;5035113;28;20434;-60
2022/07/28 02:58:53;;;;;;;4.97;1.60;;;14.90;99.90;;;;;;5025316;28;20095;-60
2022/07/28 03:01:20;;;;;;;4.43;1.15;;;15.10;99.90;;;;;;5038670;28;20026;-60
2022/07/28 03:03:48;;;;;;;6.72;1.23;;;14.60;99.90;;;;;;5033564;28;20477;-60
2022/07/28 03:06:16;;;;;;;7.40;1.50;;;14.50;99.90;;;;;;5044232;28;20034;-60
2022/07/28 03:08:42;;;;;;;4.38;1.50;;;14.50;99.90;;;;;;5028191;28;20076;-60
2022/07/28 03:11:09;;;;;;;8.68;1.80;;;14.60;99.90;;;;;;5032004;28;20038;-60
2022/07/28 03:13:35;;;;;;;4.65;1.40;;;14.70;99.90;;;;;;5037084;28;20444;-60
2022/07/28 03:16:01;;;;;;;7.38;1.33;;;14.60;99.90;;;;;;5033953;28;20029;-60
2022/07/28 03:18:27;;;;;;;4.57;1.80;;;14.40;99.90;;;;;;5049103;28;20096;-60
2022/07/28 03:20:54;;;;;;;4.53;1.67;;;14.50;99.90;;;;;;5036581;28;20107;-60
2022/07/28 03:23:42;;;;;;;4.57;1.40;;;14.60;99.90;;;;;;5031102;28;20076;-60
2022/07/28 03:26:37;;;;;;;4.35;1.27;;;14.30;99.90;;;;;;5030206;28;20063;-60
2022/07/28 03:29:03;;;;;;;7.43;1.52;;;14.40;99.90;;;;;;5029599;28;20033;-60
2022/07/28 03:31:32;;;;;;;4.07;1.50;;;14.40;99.90;;;;;;5034656;28;20113;-60
2022/07/28 03:33:57;;;;;;;5.28;1.42;;;14.60;99.90;;;;;;5036972;28;20138;-60
2022/07/28 03:36:32;;;;;;;4.97;1.60;;;14.40;99.90;;;;;;5027484;28;20370;-60
2022/07/28 03:39:02;;;;;;;5.55;1.50;;;14.20;99.90;;;;;;5031306;28;20036;-60
2022/07/28 03:41:29;;;;;;;6.53;1.60;;;14.20;99.90;;;;;;5030097;28;20045;-60
2022/07/28 03:43:57;;;;;;;5.97;1.70;;;14.20;99.90;;;;;;5031844;28;20025;-61
2022/07/28 03:46:24;;;;;;;3.83;1.60;;;14.20;99.90;;;;;;5033921;28;20037;-60
2022/07/28 03:48:49;;;;;;;3.80;1.42;;;14.30;99.90;;;;;;5030637;28;20063;-60
2022/07/28 03:51:15;;;;;;;3.40;1.60;;;14.30;99.90;;;;;;5027318;28;20104;-60
2022/07/28 03:53:41;;;;;;;4.38;1.45;;;14.60;99.90;;;;;;5040438;28;20016;-60
2022/07/28 03:56:07;;;;;;;6.75;1.83;;;14.30;99.90;;;;;;5031670;28;20017;-60
2022/07/28 03:58:32;;;;;;;5.68;1.88;;;14.20;99.90;;;;;;5029980;28;20039;-60
2022/07/28 04:00:58;;;;;;;8.05;1.60;;;14.20;99.90;;;;;;5038475;28;20096;-60
2022/07/28 04:03:24;;;;;;;5.40;1.75;;;14.20;99.90;;;;;;5031610;28;20078;-60
2022/07/28 04:05:50;;;;;;;3.92;1.50;;;14.30;99.90;;;;;;5030707;28;20021;-60
2022/07/28 04:08:16;;;;;;;4.03;1.98;;;14.40;99.90;;;;;;5027847;28;20040;-60
2022/07/28 04:10:41;;;;;;;5.60;1.63;;;14.60;99.90;;;;;;5032068;28;20080;-60
2022/07/28 04:13:07;;;;;;;6.43;1.85;;;14.50;99.90;;;;;;5028865;28;20033;-61
2022/07/28 04:15:33;;;;;;;8.10;1.80;;;14.50;99.90;;;;;;5036823;28;20570;-60
2022/07/28 04:17:59;;;;;;;5.72;1.80;;;14.30;99.90;;;;;;5045368;28;20432;-60
2022/07/28 04:20:26;;;;;;;8.30;2.05;;;14.40;99.90;;;;;;5032784;28;20031;-60
2022/07/28 04:22:53;;;;;;;6.40;1.73;;;14.40;99.90;;;;;;5027234;28;20040;-60
2022/07/28 04:25:21;;;;;;;3.83;1.75;;;14.40;99.90;;;;;;5031257;28;20037;-60
2022/07/28 04:27:47;;;;;;;6.20;1.63;;;14.40;99.90;;;;;;5031443;28;20459;-60
2022/07/28 04:30:16;;;;;;;7.15;2.08;;;14.30;99.90;;;;;;5031392;28;20128;-60
2022/07/28 04:32:42;;;;;;;8.48;2.03;;;14.40;99.90;;;;;;5028324;28;20656;-60
2022/07/28 04:35:09;;;;;;;7.05;1.88;;;14.20;99.90;;;;;;5029817;28;20060;-60
2022/07/28 04:37:36;;;;;;;5.10;1.67;;;14.10;99.90;;;;;;5029607;28;20120;-61
2022/07/28 04:40:02;;;;;;;8.80;2.20;;;14.30;99.90;;;;;;5031542;28;20260;-60
2022/07/28 04:42:28;;;;;;;8.05;2.05;;;14.20;99.90;;;;;;5031211;28;21694;-60
2022/07/28 04:44:53;;;;;;;4.78;1.77;;;14.20;99.90;;;;;;5035403;28;20017;-60
2022/07/28 04:47:19;;;;;;;4.60;1.88;;;14.10;99.90;;;;;;5035649;28;20512;-61
2022/07/28 04:49:44;;;;;;;6.00;1.80;;;14.20;99.90;;;;;;5029734;28;20510;-60
2022/07/28 04:52:11;;;;;;;9.38;2.35;;;14.20;99.90;;;;;;5030242;28;20548;-60
2022/07/28 04:54:36;;;;;;;8.88;2.22;;;14.30;99.90;;;;;;5027965;28;20021;-60
2022/07/28 04:57:03;;;;;;;10.00;2.15;;;14.40;99.90;;;;;;5031210;28;20774;-61
2022/07/28 04:59:29;;;;;;;4.93;2.08;;;14.60;99.90;;;;;;5028106;28;20029;-60
2022/07/28 05:01:58;;;;;;;6.93;2.03;;;14.50;99.90;;;;;;5037210;28;20039;-60
2022/07/28 05:04:24;;;;;;;7.80;2.35;;;14.50;99.90;;;;;;5026022;28;20129;-60
2022/07/28 05:06:49;;;;;;;6.38;2.35;;;14.60;99.90;;;;;;5029732;28;20065;-60
2022/07/28 05:09:15;;;;;;;7.72;1.98;;;14.60;99.90;;;;;;5026964;28;20155;-61
2022/07/28 05:11:41;;;;;;;5.65;2.25;;;14.90;99.90;;;;;;5033421;28;20060;-60
2022/07/28 05:14:07;;;;;;;3.80;1.75;;;14.80;99.90;;;;;;5034021;28;20036;-60
2022/07/28 05:16:33;;;;;;;3.35;1.88;;;15.10;99.90;;;;;;5033988;28;20041;-60
2022/07/28 05:18:58;;;;;;;6.82;2.30;;;15.40;99.90;;;;;;5036926;28;20104;-60
2022/07/28 05:21:24;;;;;;;8.65;2.50;;;15.30;99.90;;;;;;5038542;28;20128;-60
2022/07/28 05:23:49;;;;;;;7.35;1.98;;;15.20;99.90;;;;;;5029627;28;20107;-60
2022/07/28 05:26:15;;;;;;;9.20;2.40;;;15.00;99.90;;;;;;5029016;28;20025;-60
2022/07/28 05:28:40;;;;;;;8.52;2.33;;;15.10;99.90;;;;;;5033514;28;20056;-60
2022/07/28 05:31:07;;;;;;;9.63;2.20;;;;;;;;;;5031498;28;20087;-60
2022/07/28 05:33:34;;;;;;;8.00;2.15;;;15.70;99.90;;;;;;5029497;28;20040;-60
2022/07/28 05:36:01;;;;;;;10.88;2.50;;;;;;;;;;5027947;28;20022;-60
2022/07/28 05:38:27;;;;;;;13.95;2.30;;;15.50;99.90;;;;;;5031755;28;20745;-60
2022/07/28 05:40:53;;;;;;;7.40;2.20;;;15.60;99.90;;;;;;5029437;28;20052;-60
2022/07/28 05:43:19;;;;;;;4.38;1.88;;;15.60;99.90;;;;;;5031358;28;20340;-60
2022/07/28 05:45:45;;;;;;;15.10;2.58;;;15.50;99.90;;;;;;5033660;28;20036;-60
2022/07/28 05:48:12;;;;;;;8.00;1.92;;;15.70;99.90;;;;;;5029908;28;20049;-61
2022/07/28 05:50:38;;;;;;;5.78;1.90;;;15.80;99.90;;;;;;5025721;28;20053;-60
2022/07/28 05:53:03;;;;;;;9.52;2.33;;;15.50;99.90;;;;;;5029976;28;20731;-61
2022/07/28 05:55:29;;;;;;;4.50;2.05;;;15.80;99.90;;;;;;5028805;28;20113;-61
2022/07/28 05:57:57;;;;;;;11.70;2.38;;;15.90;99.90;;;;;;5031811;28;20027;-60
2022/07/28 06:00:23;;;;;;;9.70;2.17;;;15.90;99.90;;;;;;5024792;28;20048;-60
2022/07/28 06:02:49;;;;;;;9.73;2.22;;;16.00;99.90;;;;;;5030093;28;20025;-60
2022/07/28 06:05:16;;;;;;;8.90;2.22;;;15.90;99.90;;;;;;5025718;28;20790;-60
2022/07/28 06:07:46;;;;;;;5.43;2.42;;;15.60;99.90;;;;;;5031857;28;21096;-60
2022/07/28 06:10:14;;;;;;;6.38;2.20;;;15.60;99.90;;;;;;5030601;28;20112;-60
2022/07/28 06:12:45;;;;;;;10.07;2.33;;;15.70;99.90;;;;;;5027205;28;20549;-61
2022/07/28 06:15:13;;;;;;;5.63;2.05;;;15.90;99.90;;;;;;5028261;28;20657;-60
2022/07/28 06:17:39;;;;;;;7.13;2.00;;;15.80;99.90;;;;;;5033645;28;20056;-60
2022/07/28 06:20:06;;;;;;;12.40;2.30;;;15.70;99.90;;;;;;5039638;28;20422;-60
2022/07/28 06:22:44;;;;;;;6.63;2.00;;;15.80;99.90;;;;;;5026113;28;20492;-60
2022/07/28 06:25:14;;;;;;;8.85;2.20;;;15.80;99.90;;;;;;5030242;28;20105;-60
2022/07/28 06:27:40;;;;;;;6.55;1.85;;;15.70;99.90;;;;;;5027269;28;20025;-60
2022/07/28 06:30:06;;;;;;;10.57;2.30;;;16.00;99.90;;;;;;5028332;28;20099;-61
2022/07/28 06:32:32;;;;;;;11.52;2.45;;;16.00;99.90;;;;;;5030449;28;20038;-60
2022/07/28 06:34:57;;;;;;;6.25;2.42;;;16.00;99.90;;;;;;5034024;28;20424;-61
2022/07/28 06:37:23;;;;;;;10.02;2.53;;;16.10;99.90;;;;;;5027041;28;20437;-60
2022/07/28 06:39:49;;;;;;;4.80;2.22;;;16.30;99.90;;;;;;5031697;28;20024;-60
2022/07/28 06:42:14;;;;;;;9.63;2.38;;;16.50;99.90;;;;;;5024001;28;20107;-60
2022/07/28 06:44:40;;;;;;;9.98;2.17;;;16.60;99.90;;;;;;5028498;28;20482;-60
2022/07/28 06:47:05;;;;;;;7.38;2.13;;;16.90;99.90;;;;;;5026701;28;20229;-61
2022/07/28 06:49:31;;;;;;;9.18;2.05;;;16.90;99.90;;;;;;5034758;28;20021;-60
2022/07/28 06:51:57;;;;;;;6.78;2.08;;;16.90;99.90;;;;;;5029637;28;20029;-60
2022/07/28 06:54:22;;;;;;;6.30;1.73;;;17.00;99.90;;;;;;5027757;28;20116;-60
2022/07/28 06:56:48;;;;;;;10.35;2.20;;;16.80;99.90;;;;;;5028867;28;20034;-60
2022/07/28 06:59:14;;;;;;;4.97;1.67;;;16.80;99.90;;;;;;5028163;28;20572;-60
2022/07/28 07:01:40;;;;;;;11.70;2.22;;;17.00;99.90;;;;;;5029370;28;20030;-60
2022/07/28 07:04:07;;;;;;;7.60;2.05;;;17.10;99.90;;;;;;5029894;28;20053;-60
2022/07/28 07:06:33;;;;;;;9.23;2.08;;;17.30;99.90;;;;;;5029867;28;20026;-61
2022/07/28 07:08:59;;;;;;;7.78;1.73;;;17.40;99.90;;;;;;5026662;28;20410;-59
2022/07/28 07:11:25;;;;;;;12.73;2.10;;;17.60;99.90;;;;;;5033935;28;20392;-61
2022/07/28 07:13:51;;;;;;;9.77;2.30;;;17.50;99.90;;;;;;5029282;28;20022;-60
2022/07/28 07:16:17;;;;;;;13.52;2.83;;;17.50;99.90;;;;;;5029253;28;20528;-60
2022/07/28 07:18:43;;;;;;;10.25;2.60;;;17.30;99.90;;;;;;5043951;28;20583;-60
2022/07/28 07:21:08;;;;;;;9.95;2.65;;;17.10;99.90;;;;;;5033066;28;20086;-59
2022/07/28 07:23:34;;;;;;;8.50;3.10;;;17.30;99.90;;;;;;5032287;28;20872;-60
2022/07/28 07:26:00;;;;;;;8.02;2.90;;;17.10;99.90;;;;;;5031018;28;20021;-60
2022/07/28 07:28:26;;;;;;;11.68;2.67;;;16.90;99.90;;;;;;5032571;28;20028;-60
2022/07/28 07:30:51;;;;;;;9.32;3.38;;;17.00;99.90;;;;;;5032677;28;20033;-60
2022/07/28 07:33:17;;;;;;;11.32;2.55;;;17.30;99.90;;;;;;5027301;28;20065;-60
2022/07/28 07:35:43;;;;;;;8.75;2.45;;;17.60;99.90;;;;;;5033507;28;20055;-60
2022/07/28 07:38:08;;;;;;;13.50;2.92;;;17.70;99.90;;;;;;5035603;28;20544;-60
2022/07/28 07:40:34;;;;;;;10.10;2.55;;;17.70;99.90;;;;;;5030722;28;20029;-60
2022/07/28 07:42:59;;;;;;;9.35;2.45;;;17.60;99.90;;;;;;5028973;28;20302;-61
2022/07/28 07:45:25;;;;;;;6.38;2.45;;;17.40;99.90;;;;;;5035245;28;20029;-60
2022/07/28 07:47:51;;;;;;;10.10;2.78;;;17.60;99.90;;;;;;5033619;28;20524;-61
2022/07/28 07:50:17;;;;;;;11.93;2.60;;;17.80;99.90;;;;;;5034737;28;20029;-60
2022/07/28 07:52:42;;;;;;;9.40;2.22;;;17.80;99.90;;;;;;5032855;28;20064;-60
2022/07/28 07:55:08;;;;;;;5.90;2.50;;;18.00;99.90;;;;;;5030084;28;20083;-60
2022/07/28 07:57:34;;;;;;;8.65;2.03;;;18.40;99.90;;;;;;5037110;28;20052;-60
2022/07/28 07:59:59;;;;;;;10.55;2.25;;;18.30;99.90;;;;;;5029539;28;20405;-61
2022/07/28 08:02:25;;;;;;;5.70;2.25;;;18.10;99.90;;;;;;5033748;28;20036;-60
2022/07/28 08:04:50;;;;;;;7.68;2.70;;;18.20;99.90;;;;;;5029188;28;20033;-60
2022/07/28 08:07:16;;;;;;;6.55;2.25;;;18.30;99.90;;;;;;5032851;28;20317;-61
2022/07/28 08:09:42;;;;;;;8.63;2.28;;;18.50;99.90;;;;;;5030815;28;20044;-60
2022/07/28 08:12:07;;;;;;;8.80;2.22;;;18.60;99.90;;;;;;5036964;28;20522;-60
2022/07/28 08:14:33;;;;;;;7.40;1.92;;;18.70;99.90;;;;;;5030642;28;20033;-60
2022/07/28 08:16:59;;;;;;;4.78;1.73;;;18.70;99.90;;;;;;5034628;28;20384;-60
2022/07/28 08:19:24;;;;;;;6.30;2.03;;;18.50;99.90;;;;;;5044304;28;20029;-61
2022/07/28 08:21:50;;;;;;;6.38;1.80;;;18.70;99.90;;;;;;5034783;28;20033;-60
2022/07/28 08:24:16;;;;;;;5.70;2.08;;;18.50;99.90;;;;;;5026580;28;20022;-61
2022/07/28 08:26:41;;;;;;;6.60;1.88;;;18.50;99.90;;;;;;5030340;28;20106;-61
2022/07/28 08:29:08;;;;;;;7.82;2.15;;;18.70;99.90;;;;;;5028655;28;20021;-60
2022/07/28 08:31:33;;;;;;;7.68;2.17;;;18.70;99.90;;;;;;5039502;28;20021;-60
2022/07/28 08:34:00;;;;;;;9.82;2.45;;;18.80;99.90;;;;;;5031583;28;20033;-60
2022/07/28 08:36:25;;;;;;;10.90;2.10;;;19.00;99.90;;;;;;5029309;28;20047;-60
2022/07/28 08:38:51;;;;;;;6.13;1.80;;;18.70;99.90;;;;;;5026192;28;20489;-60
2022/07/28 08:41:25;;;;;;;9.35;2.08;;;18.80;99.90;;;;;;5034225;28;20025;-60
2022/07/28 08:43:53;;;;;;;7.45;2.15;;;18.80;99.90;;;;;;5031805;28;20118;-60
2022/07/28 08:46:20;;;;;;;7.00;1.98;;;19.00;99.90;;;;;;5029091;28;20078;-61
2022/07/28 08:48:46;;;;;;;12.00;1.92;;;19.20;99.90;;;;;;5037753;28;20150;-60
2022/07/28 08:51:14;;;;;;;10.02;2.17;;;19.50;99.90;;;;;;5032094;28;20026;-61
2022/07/28 08:53:39;;;;;;;9.88;2.08;;;19.40;99.90;;;;;;5044741;28;20025;-60
2022/07/28 08:56:12;;;;;;;9.55;2.15;;;19.50;99.90;;;;;;5031188;28;20029;-61
2022/07/28 08:58:38;;;;;;;9.27;2.05;;;19.50;99.90;;;;;;5030049;28;20497;-60
2022/07/28 09:01:07;;;;;;;6.00;2.20;;;19.50;99.90;;;;;;5033399;28;20068;-61
2022/07/28 09:03:33;;;;;;;5.38;1.88;;;19.70;99.90;;;;;;5035349;28;20434;-61
2022/07/28 09:05:58;;;;;;;5.72;2.00;;;19.80;99.90;;;;;;5031559;28;20029;-60
2022/07/28 09:08:24;;;;;;;7.00;1.98;;;19.90;99.90;;;;;;5029594;28;20673;-60
2022/07/28 09:10:50;;;;;;;6.90;2.13;;;19.90;99.90;;;;;;5026011;28;20208;-61
2022/07/28 09:13:17;;;;;;;4.75;1.58;;;19.60;99.90;;;;;;5032761;28;20465;-60
2022/07/28 09:15:44;;;;;;;5.40;1.70;;;19.70;99.90;;;;;;5030437;28;20017;-60
2022/07/28 09:18:17;;;;;;;5.55;1.90;;;19.70;99.90;;;;;;5044576;28;20020;-60
2022/07/28 09:20:43;;;;;;;5.00;1.50;;;19.80;99.90;;;;;;5033375;28;20049;-60
2022/07/28 09:23:09;;;;;;;7.57;1.95;;;19.80;99.90;;;;;;5028359;28;20036;-60
2022/07/28 09:25:35;;;;;;;6.38;1.58;;;19.80;99.90;;;;;;5028474;28;20504;-60
2022/07/28 09:28:16;;;;;;;3.65;1.35;;;19.80;99.90;;;;;;5029563;28;20072;-61
2022/07/28 09:30:45;;;;;;;7.78;1.60;;;19.90;99.90;;;;;;5036536;28;20020;-60
2022/07/28 09:33:19;;;;;;;6.38;1.75;;;20.10;99.90;;;;;;5029137;28;20602;-61
2022/07/28 09:35:56;;;;;;;3.88;1.10;;;20.40;99.90;;;;;;5037745;28;20025;-61
2022/07/28 09:38:25;;;;;;;5.50;1.52;;;20.70;99.90;;;;;;5026691;28;20084;-60
2022/07/28 09:40:59;;;;;;;8.15;1.70;;;20.70;99.90;;;;;;5033295;28;20041;-61
2022/07/28 09:43:36;;;;;;;8.00;1.73;;;20.70;99.90;;;;;;5028230;28;20069;-61
2022/07/28 09:46:13;;;;;;;5.32;1.50;;;20.90;99.90;;;;;;5028346;28;20508;-60
2022/07/28 09:48:48;;;;;;;6.25;1.77;;;21.10;99.90;;;;;;5031024;28;20484;-61
2022/07/28 09:51:18;;;;;;;6.30;1.60;;;21.20;99.90;;;;;;5032945;28;20055;-60
2022/07/28 09:53:44;;;;;;;9.85;1.80;;;21.10;99.90;;;;;;5044026;28;20025;-61
2022/07/28 09:56:11;;;;;;;5.57;1.60;;;21.10;99.90;;;;;;5025642;28;20029;-61
2022/07/28 09:58:38;;;;;;;10.13;1.92;;;20.70;99.90;;;;;;5029338;28;20029;-60
2022/07/28 10:01:14;;;;;;;4.78;1.40;;;20.80;99.90;;;;;;5029468;28;20509;-61
2022/07/28 10:03:41;;;;;;;7.10;1.60;;;20.90;99.90;;;;;;5033703;28;20025;-61
2022/07/28 10:06:14;;;;;;;7.00;1.50;;;21.10;99.90;;;;;;5024790;28;20104;-60
2022/07/28 10:08:46;;;;;;;5.85;1.50;;;21.30;99.90;;;;;;5027782;28;20659;-61
2022/07/28 10:11:14;;;;;;;4.40;1.65;;;21.40;99.90;;;;;;5025418;28;20037;-60
2022/07/28 10:14:01;;;;;;;8.65;1.70;;;21.50;99.90;;;;;;5039202;28;20224;-60
2022/07/28 10:16:29;;;;;;;6.13;1.45;;;21.40;99.90;;;;;;5030998;28;20029;-61
2022/07/28 10:18:58;;;;;;;5.60;1.75;;;21.50;99.90;;;;;;5031950;28;20053;-61
2022/07/28 10:21:25;;;;;;;7.63;1.85;;;21.50;99.90;;;;;;5027078;28;20482;-61
2022/07/28 10:24:00;;;;;;;4.85;1.55;;;21.20;99.90;;;;;;5038298;28;20025;-60
2022/07/28 10:26:31;;;;;;;7.53;1.70;;;21.20;99.90;;;;;;5028817;28;20033;-60
2022/07/28 10:29:02;;;;;;;4.93;1.50;;;21.10;99.90;;;;;;5025911;28;20021;-60
2022/07/28 10:31:32;;;;;;;8.68;2.17;;;21.30;99.90;;;;;;5039031;28;20475;-60
2022/07/28 10:33:59;;;;;;;5.25;1.92;;;21.10;99.90;;;;;;5022645;28;20038;-61
2022/07/28 10:36:26;;;;;;;4.63;1.58;;;20.50;99.90;;;;;;5027630;28;20068;-60
2022/07/28 10:39:10;;;;;;;7.88;1.48;;;21.30;99.90;;;;;;5024637;28;20193;-59
2022/07/28 10:41:39;;;;;;;4.55;1.35;;;21.60;99.90;;;;;;5030372;28;20438;-61
2022/07/28 10:44:06;;;;;;;8.35;1.50;;;21.50;99.90;;;;;;5035467;28;20029;-61
2022/07/28 10:46:33;;;;;;;8.20;1.50;;;21.50;99.90;;;;;;5028122;28;20033;-60
2022/07/28 10:49:00;;;;;;;3.58;1.30;;;21.50;99.90;;;;;;5038503;28;20029;-60
2022/07/28 10:51:26;;;;;;;3.88;1.50;;;21.50;99.90;;;;;;5031603;28;20101;-60
2022/07/28 10:54:07;;;;;;;5.93;1.20;;;21.20;99.90;;;;;;5028208;28;20028;-61
2022/07/28 10:56:52;;;;;;;4.03;1.20;;;21.60;99.90;;;;;;5025821;28;20029;-60
2022/07/28 10:59:17;;;;;;;5.35;1.60;;;21.70;99.90;;;;;;5029639;28;20322;-60
2022/07/28 11:01:43;;;;;;;4.60;1.30;;;21.90;99.90;;;;;;5033763;28;20583;-61
2022/07/28 11:04:45;;;;;;;4.82;1.70;;;22.00;99.90;;;;;;5039381;28;20026;-61
2022/07/28 11:07:15;;;;;;;6.47;1.42;;;21.60;99.90;;;;;;5027847;28;20550;-60
2022/07/28 11:09:42;;;;;;;4.25;1.33;;;21.50;99.90;;;;;;5036591;28;20124;-60
2022/07/28 11:12:13;;;;;;;5.97;1.30;;;21.70;99.90;;;;;;5034835;28;20082;-60
2022/07/28 11:14:39;;;;;;;8.57;1.40;;;21.80;99.90;;;;;;5028738;28;20116;-61
2022/07/28 11:17:05;;;;;;;7.75;1.55;;;21.90;99.90;;;;;;5037017;28;20112;-61
2022/07/28 11:19:36;;;;;;;11.82;1.70;;;22.00;99.90;;;;;;5034076;28;20556;-60
2022/07/28 11:22:29;;;;;;;2.25;1.10;;;22.10;99.90;;;;;;5030458;28;20035;-61
2022/07/28 11:24:58;;;;;;;5.40;1.30;;;22.10;99.90;;;;;;5028885;28;20044;-61
2022/07/28 11:27:42;;;;;;;3.08;1.10;;;22.10;99.90;;;;;;5033384;28;20037;-61
2022/07/28 11:30:31;;;;;;;6.10;1.40;;;22.10;99.90;;;;;;5034849;28;20017;-60
2022/07/28 11:33:00;;;;;;;3.35;1.17;;;22.00;99.90;;;;;;5044576;28;20044;-61
2022/07/28 11:35:28;;;;;;;5.85;1.70;;;22.20;99.90;;;;;;5037975;28;20036;-60
2022/07/28 11:38:00;;;;;;;6.25;1.20;;;22.30;99.90;;;;;;5035199;28;20701;-61
2022/07/28 11:40:42;;;;;;;4.57;1.55;;;22.20;99.90;;;;;;5043029;28;20021;-61
2022/07/28 11:43:20;;;;;;;9.93;1.20;;;22.10;99.90;;;;;;5032612;28;20083;-60
2022/07/28 11:46:07;;;;;;;6.60;1.65;;;22.30;99.90;;;;;;5039702;28;20016;-61
2022/07/28 11:48:33;;;;;;;4.93;1.48;;;22.10;99.90;;;;;;5024211;28;20030;-61
2022/07/28 11:51:02;;;;;;;8.65;1.58;;;22.10;99.90;;;;;;5031251;28;20170;-60
2022/07/28 11:53:37;;;;;;;4.28;1.30;;;22.30;99.90;;;;;;5036055;28;20580;-61
2022/07/28 11:56:11;;;;;;;5.82;1.23;;;22.30;99.90;;;;;;5030771;28;20084;-60
2022/07/28 11:58:38;;;;;;;6.45;1.50;;;22.10;99.90;;;;;;5032564;28;20035;-60
2022/07/28 12:01:11;;;;;;;9.52;1.58;;;22.20;99.90;;;;;;5032283;28;20037;-60
2022/07/28 12:03:39;;;;;;;6.93;1.20;;;22.30;99.90;;;;;;5029843;28;20027;-61
2022/07/28 12:06:05;;;;;;;3.55;1.20;;;22.50;99.90;;;;;;5028285;28;20025;-62
2022/07/28 12:08:52;;;;;;;3.75;1.38;;;22.60;99.90;;;;;;5031105;28;20017;-61
2022/07/28 12:11:19;;;;;;;6.78;1.60;;;22.70;99.90;;;;;;5026998;28;20032;-61
2022/07/28 12:13:45;;;;;;;6.38;1.50;;;22.80;99.90;;;;;;5042757;28;20079;-61
2022/07/28 12:16:11;;;;;;;5.30;1.50;;;22.80;99.90;;;;;;5026601;28;20139;-60
2022/07/28 12:18:37;;;;;;;6.85;1.52;;;22.80;99.90;;;;;;5040536;28;20412;-61
2022/07/28 12:21:03;;;;;;;4.50;1.52;;;22.90;99.90;;;;;;5028289;28;20040;-61
2022/07/28 12:23:31;;;;;;;4.40;1.30;;;22.80;99.90;;;;;;5037487;28;20076;-60
2022/07/28 12:25:56;;;;;;;5.47;1.50;;;22.80;99.90;;;;;;5031420;28;20033;-60
2022/07/28 12:28:22;;;;;;;2.70;1.23;;;22.80;99.90;;;;;;5032148;28;20029;-61
2022/07/28 12:30:50;;;;;;;3.30;1.08;;;22.70;99.90;;;;;;5025971;28;20044;-61
2022/07/28 12:33:24;;;;;;;9.10;1.50;;;22.70;99.90;;;;;;5035547;28;20096;-60
2022/07/28 12:35:53;;;;;;;6.85;1.63;;;22.70;99.90;;;;;;5030496;28;20029;-61
2022/07/28 12:38:23;;;;;;;3.10;1.10;;;22.70;99.90;;;;;;5030784;28;20727;-60
2022/07/28 12:40:49;;;;;;;4.38;1.27;;;23.10;99.90;;;;;;5038097;28;20573;-61
2022/07/28 12:43:20;;;;;;;5.65;1.65;;;23.30;99.90;;;;;;5028485;28;20109;-61
2022/07/28 12:45:46;;;;;;;5.32;1.48;;;23.30;99.90;;;;;;5031324;28;20029;-61
2022/07/28 12:48:12;;;;;;;6.38;1.40;;;23.40;99.90;;;;;;5028615;28;20496;-61
2022/07/28 12:50:39;;;;;;;8.30;1.17;;;23.30;99.90;;;;;;5034934;28;20024;-60
2022/07/28 12:53:10;;;;;;;7.78;1.58;;;23.30;99.90;;;;;;5034333;28;20043;-60